createdAt,value
2022-11-24T04:55:17.665Z,5.67
2022-11-24T04:58:20.009Z,5.48
2022-11-24T05:01:22.179Z,5.35
2022-11-24T05:04:24.741Z,5.42
2022-11-24T05:07:26.971Z,5.49
2022-11-24T05:10:35.204Z,5.44
2022-11-24T05:13:37.264Z,5.46
2022-11-24T05:16:39.652Z,5.44
2022-11-24T05:19:41.764Z,5.37
2022-11-24T05:22:44.600Z,5.36
2022-11-24T05:25:47.966Z,5.48
2022-11-24T05:28:50.467Z,5.45
2022-11-24T05:31:52.617Z,5.43
2022-11-24T05:34:55.191Z,5.44
2022-11-24T05:37:58.653Z,5.57
2022-11-24T05:41:05.443Z,5.48
2022-11-24T05:44:07.576Z,5.59
2022-11-24T05:47:09.933Z,5.64
2022-11-24T05:50:14.619Z,5.85
2022-11-24T05:53:16.925Z,5.68
2022-11-24T05:56:19.172Z,5.68
2022-11-24T05:59:21.852Z,5.82
2022-11-24T06:02:25.434Z,5.71
2022-11-24T06:05:29.227Z,5.81
2022-11-24T06:08:31.477Z,5.76
2022-11-24T06:11:34.024Z,5.82
2022-11-24T06:14:36.740Z,5.89
2022-11-24T06:17:39.688Z,5.71
2022-11-24T06:20:42.248Z,5.72
2022-11-24T06:23:49.082Z,5.64
2022-11-24T06:26:51.124Z,5.55
2022-11-24T06:29:53.477Z,5.53
2022-11-24T06:32:55.606Z,5.41
2022-11-24T06:36:03.445Z,5.43
2022-11-24T06:39:07.012Z,5.49
2022-11-24T06:42:09.345Z,5.81
2022-11-24T06:45:11.419Z,5.94
2022-11-24T06:48:13.751Z,5.75
2022-11-24T06:51:15.879Z,5.93
2022-11-24T06:54:21.046Z,5.86
2022-11-24T06:57:23.089Z,5.98
2022-11-24T07:00:25.504Z,5.82
2022-11-24T07:03:27.653Z,5.92
2022-11-24T07:06:30.004Z,5.94
2022-11-24T07:09:32.059Z,5.90
2022-11-24T07:12:35.304Z,5.80
2022-11-24T07:15:37.409Z,5.93
2022-11-24T07:18:39.752Z,5.88
2022-11-24T07:21:41.863Z,6.00
2022-11-24T07:24:44.186Z,5.97
2022-11-24T07:27:46.216Z,6.02
2022-11-24T07:30:48.561Z,5.89
2022-11-24T07:33:52.532Z,5.91
2022-11-24T07:36:54.865Z,5.87
2022-11-24T07:39:56.905Z,6.05
2022-11-24T07:43:01.467Z,6.09
2022-11-24T07:46:07.271Z,6.24
2022-11-24T07:49:13.015Z,6.32
2022-11-24T07:52:15.156Z,6.34
2022-11-24T07:55:17.527Z,6.28
2022-11-24T07:58:19.616Z,6.27
2022-11-24T08:01:22.047Z,6.25
2022-11-24T08:04:24.444Z,6.29
2022-11-24T08:07:26.583Z,6.28
2022-11-24T08:10:28.969Z,6.28
2022-11-24T08:13:31.305Z,6.57
2022-11-24T08:16:33.695Z,6.72
2022-11-24T08:19:36.097Z,6.80
2022-11-24T08:22:38.604Z,6.69
2022-11-24T08:25:40.620Z,6.48
2022-11-24T08:28:43.859Z,6.57
2022-11-24T08:31:45.923Z,6.81
2022-11-24T08:34:48.289Z,6.90
2022-11-24T08:37:50.369Z,6.87
2022-11-24T08:40:52.657Z,6.72
2022-11-24T08:43:55.372Z,6.65
2022-11-24T08:46:57.709Z,6.59
2022-11-24T08:49:59.813Z,6.59
2022-11-24T08:53:02.156Z,6.80
2022-11-24T08:56:05.682Z,6.90
2022-11-24T08:59:08.090Z,6.82
2022-11-24T09:02:12.217Z,6.98
2022-11-24T09:05:49.703Z,7.06
2022-11-24T09:08:37.725Z,7.26
2022-11-24T09:11:40.069Z,7.11
2022-11-24T09:14:42.106Z,7.15
2022-11-24T09:17:45.292Z,7.01
2022-11-24T09:20:47.321Z,7.12
2022-11-24T09:23:52.120Z,7.13
2022-11-24T09:26:55.439Z,7.20
2022-11-24T09:29:57.739Z,7.39
2022-11-24T09:32:59.796Z,7.30
2022-11-24T09:36:02.663Z,7.27
2022-11-24T09:39:05.175Z,7.26
2022-11-24T09:42:14.802Z,7.26
2022-11-24T09:46:05.147Z,7.38
2022-11-24T09:49:14.056Z,7.48
2022-11-24T09:52:35.638Z,7.84
2022-11-24T09:55:48.561Z,7.78
2022-11-24T09:59:05.194Z,7.73
2022-11-24T10:02:13.193Z,7.80
2022-11-24T10:05:15.657Z,7.70
2022-11-24T10:08:44.321Z,7.71
2022-11-24T10:11:58.753Z,7.70
2022-11-24T10:15:13.065Z,7.76
2022-11-24T10:19:00.341Z,7.75
2022-11-24T10:22:17.391Z,7.65
2022-11-24T10:25:29.561Z,7.61
2022-11-24T10:28:58.479Z,7.34
2022-11-24T10:32:10.812Z,7.37
2022-11-24T10:35:19.817Z,7.37
2022-11-24T10:38:35.008Z,7.41
2022-11-24T10:41:48.553Z,7.38
2022-11-24T10:45:13.672Z,7.44
2022-11-24T10:48:21.034Z,7.69
2022-11-24T10:52:01.390Z,7.70
2022-11-24T10:55:05.485Z,7.62
2022-11-24T10:58:15.773Z,7.64
2022-11-24T11:01:17.835Z,7.79
2022-11-24T11:04:27.689Z,7.83
2022-11-24T11:07:29.841Z,7.85
2022-11-24T11:10:32.241Z,7.78
2022-11-24T11:13:34.268Z,7.91
2022-11-24T11:16:42.291Z,7.87
2022-11-24T11:19:49.352Z,7.88
2022-11-24T11:22:58.773Z,7.88
2022-11-24T11:26:27.341Z,7.84
2022-11-24T11:36:23.372Z,7.87
2022-11-24T11:39:32.866Z,7.95
2022-11-24T11:46:16.901Z,8.04
2022-11-24T11:49:19.461Z,8.07
2022-11-24T11:52:44.620Z,8.00
2022-11-24T11:55:57.488Z,8.02
2022-11-24T11:59:28.712Z,7.89
2022-11-24T12:02:57.553Z,7.94
2022-11-24T12:06:25.109Z,7.87
2022-11-24T12:10:01.814Z,7.89
2022-11-24T12:13:30.857Z,7.91
2022-11-24T12:16:32.818Z,8.02
2022-11-24T12:19:53.193Z,8.04
2022-11-24T12:23:05.680Z,8.00
2022-11-24T12:26:29.297Z,8.01
2022-11-24T12:29:52.103Z,7.93
2022-11-24T12:33:24.284Z,7.94
2022-11-24T12:36:41.197Z,7.87
2022-11-24T12:39:56.828Z,7.86
2022-11-24T12:43:33.846Z,7.76
2022-11-24T12:46:50.697Z,7.70
2022-11-24T12:50:13.080Z,7.77
2022-11-24T12:53:28.470Z,7.76
2022-11-24T12:56:43.469Z,7.91
2022-11-24T13:00:16.037Z,7.98
2022-11-24T13:03:52.971Z,7.87
2022-11-24T13:07:05.468Z,7.92
2022-11-24T13:10:53.607Z,7.91
2022-11-24T13:14:13.957Z,7.96
2022-11-24T13:17:50.277Z,8.00
2022-11-24T13:20:56.741Z,7.99
2022-11-24T13:24:04.822Z,7.94
2022-11-24T13:27:13.151Z,7.93
2022-11-24T13:30:33.675Z,7.95
2022-11-24T13:33:36.424Z,7.88
2022-11-24T13:36:53.587Z,7.88
2022-11-24T13:39:57.167Z,7.98
2022-11-24T13:43:01.423Z,8.02
2022-11-24T13:46:04.290Z,8.07
2022-11-24T13:49:13.930Z,7.97
2022-11-24T13:52:34.712Z,7.95
2022-11-24T13:55:38.947Z,8.05
2022-11-24T13:59:15.968Z,8.09
2022-11-24T14:02:23.914Z,8.06
2022-11-24T14:05:48.052Z,8.01
2022-11-24T14:08:50.280Z,7.94
2022-11-24T14:12:15.091Z,7.97
2022-11-24T14:15:29.467Z,7.96
2022-11-24T14:18:33.836Z,7.94
2022-11-24T14:21:41.231Z,8.00
2022-11-24T14:24:47.427Z,8.03
2022-11-24T14:27:49.872Z,7.97
2022-11-24T14:31:07.200Z,8.03
2022-11-24T14:34:15.341Z,7.95
2022-11-24T14:37:19.338Z,7.84
2022-11-24T14:40:37.355Z,7.85
2022-11-24T14:43:39.539Z,7.83
2022-11-24T14:46:42.157Z,7.83
2022-11-24T14:49:44.706Z,7.88
2022-11-24T14:52:55.977Z,7.85
2022-11-24T14:56:09.048Z,7.68
2022-11-24T14:59:22.164Z,7.63
2022-11-24T15:02:47.826Z,7.72
2022-11-24T15:05:57.041Z,7.75
2022-11-24T15:08:59.381Z,7.75
2022-11-24T15:12:18.139Z,7.69
2022-11-24T15:15:24.015Z,7.61
2022-11-24T15:18:40.736Z,7.50
2022-11-24T15:21:43.072Z,7.50
2022-11-24T15:24:53.628Z,7.55
2022-11-24T15:27:56.372Z,7.47
2022-11-24T15:31:03.208Z,7.43
2022-11-24T15:34:06.360Z,7.32
2022-11-24T15:37:11.594Z,7.27
2022-11-24T15:40:14.570Z,7.33
2022-11-24T15:43:31.340Z,7.21
2022-11-24T15:46:37.977Z,7.02
2022-11-24T15:49:40.251Z,6.97
2022-11-24T15:52:43.179Z,7.01
2022-11-24T15:55:45.305Z,6.91
2022-11-24T15:58:48.442Z,6.94
2022-11-24T16:01:51.017Z,6.86
2022-11-24T16:04:53.440Z,6.89
2022-11-24T16:07:55.542Z,6.71
2022-11-24T16:10:57.916Z,6.73
2022-11-24T16:13:59.995Z,6.80
2022-11-24T16:17:02.772Z,6.74
2022-11-24T16:20:05.719Z,6.68
2022-11-24T16:23:08.080Z,6.65
2022-11-24T16:26:10.458Z,6.69
2022-11-24T16:29:13.043Z,6.61
2022-11-24T16:32:15.177Z,6.61
2022-11-24T16:35:17.636Z,6.65
2022-11-24T16:38:20.339Z,6.55
2022-11-24T16:41:22.708Z,6.59
2022-11-24T16:44:24.790Z,6.53
2022-11-24T16:47:27.344Z,6.53
2022-11-24T16:50:29.372Z,6.42
